sensor_id;sensor_type;location;lat;lon;timestamp;P1;P2;P0
54553;PMS5003;40450;55.848;-3.572;2024-02-21T00:01:14;5;3;
54553;PMS5003;40450;55.848;-3.572;2024-02-21T00:03:30;8;3;
54553;PMS5003;40450;55.848;-3.572;2024-02-21T00:06:04;6;4;
54553;PMS5003;40450;55.848;-3.572;2024-02-21T00:08:26;3;3;
54553;PMS5003;40450;55.848;-3.572;2024-02-21T00:10:52;3;2;
54553;PMS5003;40450;55.848;-3.572;2024-02-21T00:13:11;3;1;
54553;PMS5003;40450;55.848;-3.572;2024-02-21T00:15:44;2;2;
54553;PMS5003;40450;55.848;-3.572;2024-02-21T00:18:09;4;3;
54553;PMS5003;40450;55.848;-3.572;2024-02-21T00:20:27;7;4;
54553;PMS5003;40450;55.848;-3.572;2024-02-21T00:22:53;3;3;
54553;PMS5003;40450;55.848;-3.572;2024-02-21T00:25:24;4;3;
54553;PMS5003;40450;55.848;-3.572;2024-02-21T00:27:49;6;4;
54553;PMS5003;40450;55.848;-3.572;2024-02-21T00:30:10;5;4;
54553;PMS5003;40450;55.848;-3.572;2024-02-21T00:32:35;3;3;
54553;PMS5003;40450;55.848;-3.572;2024-02-21T00:35:06;3;3;
54553;PMS5003;40450;55.848;-3.572;2024-02-21T00:39:56;3;3;
54553;PMS5003;40450;55.848;-3.572;2024-02-21T00:42:22;3;2;
54553;PMS5003;40450;55.848;-3.572;2024-02-21T00:44:50;1;1;
54553;PMS5003;40450;55.848;-3.572;2024-02-21T00:47:08;4;4;
54553;PMS5003;40450;55.848;-3.572;2024-02-21T00:49:38;2;2;
54553;PMS5003;40450;55.848;-3.572;2024-02-21T00:51:58;3;3;
54553;PMS5003;40450;55.848;-3.572;2024-02-21T00:54:29;4;4;
54553;PMS5003;40450;55.848;-3.572;2024-02-21T00:56:54;4;2;
54553;PMS5003;40450;55.848;-3.572;2024-02-21T00:59:20;3;3;
54553;PMS5003;40450;55.848;-3.572;2024-02-21T01:01:45;3;3;
54553;PMS5003;40450;55.848;-3.572;2024-02-21T01:04:10;3;2;
54553;PMS5003;40450;55.848;-3.572;2024-02-21T01:06:36;2;2;
54553;PMS5003;40450;55.848;-3.572;2024-02-21T01:09:01;1;1;
54553;PMS5003;40450;55.848;-3.572;2024-02-21T01:11:26;2;2;
54553;PMS5003;40450;55.848;-3.572;2024-02-21T01:13:51;3;3;
54553;PMS5003;40450;55.848;-3.572;2024-02-21T01:18:42;2;2;
54553;PMS5003;40450;55.848;-3.572;2024-02-21T01:21:10;1;1;
54553;PMS5003;40450;55.848;-3.572;2024-02-21T01:23:32;4;3;
54553;PMS5003;40450;55.848;-3.572;2024-02-21T01:25:54;3;2;
54553;PMS5003;40450;55.848;-3.572;2024-02-21T01:28:24;3;1;
54553;PMS5003;40450;55.848;-3.572;2024-02-21T01:30:48;1;1;
54553;PMS5003;40450;55.848;-3.572;2024-02-21T01:33:08;4;2;
54553;PMS5003;40450;55.848;-3.572;2024-02-21T01:35:34;3;3;
54553;PMS5003;40450;55.848;-3.572;2024-02-21T01:37:59;1;1;
54553;PMS5003;40450;55.848;-3.572;2024-02-21T01:40:24;2;2;
54553;PMS5003;40450;55.848;-3.572;2024-02-21T01:42:49;1;1;
54553;PMS5003;40450;55.848;-3.572;2024-02-21T01:45:18;2;2;
54553;PMS5003;40450;55.848;-3.572;2024-02-21T01:47:40;2;2;
54553;PMS5003;40450;55.848;-3.572;2024-02-21T01:50:14;2;2;
54553;PMS5003;40450;55.848;-3.572;2024-02-21T01:54:57;5;1;
54553;PMS5003;40450;55.848;-3.572;2024-02-21T01:57:22;5;2;
54553;PMS5003;40450;55.848;-3.572;2024-02-21T01:59:52;3;1;
54553;PMS5003;40450;55.848;-3.572;2024-02-21T02:02:22;2;2;
54553;PMS5003;40450;55.848;-3.572;2024-02-21T02:04:38;5;4;
54553;PMS5003;40450;55.848;-3.572;2024-02-21T02:07:04;3;3;
54553;PMS5003;40450;55.848;-3.572;2024-02-21T02:09:31;2;2;
54553;PMS5003;40450;55.848;-3.572;2024-02-21T02:12:00;2;2;
54553;PMS5003;40450;55.848;-3.572;2024-02-21T02:14:20;2;2;
54553;PMS5003;40450;55.848;-3.572;2024-02-21T02:16:53;1;1;
54553;PMS5003;40450;55.848;-3.572;2024-02-21T02:19:11;1;1;
54553;PMS5003;40450;55.848;-3.572;2024-02-21T02:21:38;4;1;
54553;PMS5003;40450;55.848;-3.572;2024-02-21T02:24:02;1;0;
54553;PMS5003;40450;55.848;-3.572;2024-02-21T02:26:27;3;2;
54553;PMS5003;40450;55.848;-3.572;2024-02-21T02:28:52;1;1;
54553;PMS5003;40450;55.848;-3.572;2024-02-21T02:31:17;1;1;
54553;PMS5003;40450;55.848;-3.572;2024-02-21T02:33:43;4;1;
54553;PMS5003;40450;55.848;-3.572;2024-02-21T02:36:08;1;1;
54553;PMS5003;40450;55.848;-3.572;2024-02-21T02:38:39;2;1;
54553;PMS5003;40450;55.848;-3.572;2024-02-21T02:41:05;4;2;
54553;PMS5003;40450;55.848;-3.572;2024-02-21T02:43:29;6;2;
54553;PMS5003;40450;55.848;-3.572;2024-02-21T02:45:55;2;1;
54553;PMS5003;40450;55.848;-3.572;2024-02-21T02:48:14;2;2;
54553;PMS5003;40450;55.848;-3.572;2024-02-21T02:50:40;5;2;
54553;PMS5003;40450;55.848;-3.572;2024-02-21T02:53:05;2;1;
54553;PMS5003;40450;55.848;-3.572;2024-02-21T02:55:31;3;2;
54553;PMS5003;40450;55.848;-3.572;2024-02-21T02:57:56;3;1;
54553;PMS5003;40450;55.848;-3.572;2024-02-21T03:00:21;2;2;
54553;PMS5003;40450;55.848;-3.572;2024-02-21T03:02:48;1;1;
54553;PMS5003;40450;55.848;-3.572;2024-02-21T03:05:19;2;2;
54553;PMS5003;40450;55.848;-3.572;2024-02-21T03:07:37;4;2;
54553;PMS5003;40450;55.848;-3.572;2024-02-21T03:10:06;2;2;
54553;PMS5003;40450;55.848;-3.572;2024-02-21T03:12:27;2;2;
54553;PMS5003;40450;55.848;-3.572;2024-02-21T03:14:53;1;1;
54553;PMS5003;40450;55.848;-3.572;2024-02-21T03:17:18;1;1;
54553;PMS5003;40450;55.848;-3.572;2024-02-21T03:19:48;4;2;
54553;PMS5003;40450;55.848;-3.572;2024-02-21T03:22:14;1;1;
54553;PMS5003;40450;55.848;-3.572;2024-02-21T03:24:39;2;2;
54553;PMS5003;40450;55.848;-3.572;2024-02-21T03:27:05;1;1;
54553;PMS5003;40450;55.848;-3.572;2024-02-21T03:29:25;1;1;
54553;PMS5003;40450;55.848;-3.572;2024-02-21T03:31:51;2;2;
54553;PMS5003;40450;55.848;-3.572;2024-02-21T03:34:16;4;1;
54553;PMS5003;40450;55.848;-3.572;2024-02-21T03:36:42;3;1;
54553;PMS5003;40450;55.848;-3.572;2024-02-21T03:39:08;4;3;
54553;PMS5003;40450;55.848;-3.572;2024-02-21T03:41:33;2;2;
54553;PMS5003;40450;55.848;-3.572;2024-02-21T03:43:58;1;1;
54553;PMS5003;40450;55.848;-3.572;2024-02-21T03:46:25;3;1;
54553;PMS5003;40450;55.848;-3.572;2024-02-21T03:48:49;2;2;
54553;PMS5003;40450;55.848;-3.572;2024-02-21T03:51:14;3;3;
54553;PMS5003;40450;55.848;-3.572;2024-02-21T03:53:39;2;2;
54553;PMS5003;40450;55.848;-3.572;2024-02-21T03:56:05;3;1;
54553;PMS5003;40450;55.848;-3.572;2024-02-21T03:58:33;1;1;
54553;PMS5003;40450;55.848;-3.572;2024-02-21T04:00:55;3;2;
54553;PMS5003;40450;55.848;-3.572;2024-02-21T04:03:20;1;1;
54553;PMS5003;40450;55.848;-3.572;2024-02-21T04:05:46;2;1;
54553;PMS5003;40450;55.848;-3.572;2024-02-21T04:08:11;2;2;
54553;PMS5003;40450;55.848;-3.572;2024-02-21T04:10:36;3;3;
54553;PMS5003;40450;55.848;-3.572;2024-02-21T04:13:06;3;1;
54553;PMS5003;40450;55.848;-3.572;2024-02-21T04:15:27;0;0;
54553;PMS5003;40450;55.848;-3.572;2024-02-21T04:17:52;2;1;
54553;PMS5003;40450;55.848;-3.572;2024-02-21T04:20:17;2;2;
54553;PMS5003;40450;55.848;-3.572;2024-02-21T04:22:43;1;1;
54553;PMS5003;40450;55.848;-3.572;2024-02-21T04:25:08;1;1;
54553;PMS5003;40450;55.848;-3.572;2024-02-21T04:27:33;1;1;
54553;PMS5003;40450;55.848;-3.572;2024-02-21T04:29:59;2;1;
54553;PMS5003;40450;55.848;-3.572;2024-02-21T04:32:30;3;2;
54553;PMS5003;40450;55.848;-3.572;2024-02-21T04:34:56;2;1;
54553;PMS5003;40450;55.848;-3.572;2024-02-21T04:37:19;2;2;
54553;PMS5003;40450;55.848;-3.572;2024-02-21T04:39:44;3;1;
54553;PMS5003;40450;55.848;-3.572;2024-02-21T04:42:04;1;1;
54553;PMS5003;40450;55.848;-3.572;2024-02-21T04:44:29;3;1;
54553;PMS5003;40450;55.848;-3.572;2024-02-21T04:46:55;2;2;
54553;PMS5003;40450;55.848;-3.572;2024-02-21T04:49:20;1;1;
54553;PMS5003;40450;55.848;-3.572;2024-02-21T04:51:45;0;0;
54553;PMS5003;40450;55.848;-3.572;2024-02-21T04:54:10;1;1;
54553;PMS5003;40450;55.848;-3.572;2024-02-21T04:56:44;4;1;
54553;PMS5003;40450;55.848;-3.572;2024-02-21T04:59:01;1;1;
54553;PMS5003;40450;55.848;-3.572;2024-02-21T05:01:35;3;2;
54553;PMS5003;40450;55.848;-3.572;2024-02-21T05:03:51;0;0;
54553;PMS5003;40450;55.848;-3.572;2024-02-21T05:06:17;1;0;
54553;PMS5003;40450;55.848;-3.572;2024-02-21T05:08:48;1;1;
54553;PMS5003;40450;55.848;-3.572;2024-02-21T05:11:12;0;0;
54553;PMS5003;40450;55.848;-3.572;2024-02-21T05:13:41;3;1;
54553;PMS5003;40450;55.848;-3.572;2024-02-21T05:16:11;1;1;
54553;PMS5003;40450;55.848;-3.572;2024-02-21T05:18:28;1;1;
54553;PMS5003;40450;55.848;-3.572;2024-02-21T05:20:53;1;1;
54553;PMS5003;40450;55.848;-3.572;2024-02-21T05:23:21;1;0;
54553;PMS5003;40450;55.848;-3.572;2024-02-21T05:25:43;2;0;
54553;PMS5003;40450;55.848;-3.572;2024-02-21T05:28:08;0;0;
54553;PMS5003;40450;55.848;-3.572;2024-02-21T05:30:29;0;0;
54553;PMS5003;40450;55.848;-3.572;2024-02-21T05:32:59;1;1;
54553;PMS5003;40450;55.848;-3.572;2024-02-21T05:35:27;1;0;
54553;PMS5003;40450;55.848;-3.572;2024-02-21T05:37:52;4;2;
54553;PMS5003;40450;55.848;-3.572;2024-02-21T05:40:14;3;2;
54553;PMS5003;40450;55.848;-3.572;2024-02-21T05:42:35;1;1;
54553;PMS5003;40450;55.848;-3.572;2024-02-21T05:45:00;1;1;
54553;PMS5003;40450;55.848;-3.572;2024-02-21T05:47:30;0;0;
54553;PMS5003;40450;55.848;-3.572;2024-02-21T05:49:50;1;1;
54553;PMS5003;40450;55.848;-3.572;2024-02-21T05:52:17;1;0;
54553;PMS5003;40450;55.848;-3.572;2024-02-21T05:54:46;1;1;
54553;PMS5003;40450;55.848;-3.572;2024-02-21T05:57:07;1;1;
54553;PMS5003;40450;55.848;-3.572;2024-02-21T05:59:31;0;0;
54553;PMS5003;40450;55.848;-3.572;2024-02-21T06:01:56;2;0;
54553;PMS5003;40450;55.848;-3.572;2024-02-21T06:04:21;1;1;
54553;PMS5003;40450;55.848;-3.572;2024-02-21T06:06:47;0;0;
54553;PMS5003;40450;55.848;-3.572;2024-02-21T06:09:12;1;1;
54553;PMS5003;40450;55.848;-3.572;2024-02-21T06:11:37;1;1;
54553;PMS5003;40450;55.848;-3.572;2024-02-21T06:14:02;0;0;
54553;PMS5003;40450;55.848;-3.572;2024-02-21T06:16:27;1;1;
54553;PMS5003;40450;55.848;-3.572;2024-02-21T06:18:53;1;1;
54553;PMS5003;40450;55.848;-3.572;2024-02-21T06:21:18;1;1;
54553;PMS5003;40450;55.848;-3.572;2024-02-21T06:23:43;1;1;
54553;PMS5003;40450;55.848;-3.572;2024-02-21T06:26:08;2;2;
54553;PMS5003;40450;55.848;-3.572;2024-02-21T06:28:35;2;1;
54553;PMS5003;40450;55.848;-3.572;2024-02-21T06:31:00;1;1;
54553;PMS5003;40450;55.848;-3.572;2024-02-21T06:33:30;2;0;
54553;PMS5003;40450;55.848;-3.572;2024-02-21T06:35:51;0;0;
54553;PMS5003;40450;55.848;-3.572;2024-02-21T06:38:15;0;0;
54553;PMS5003;40450;55.848;-3.572;2024-02-21T06:43:05;1;1;
54553;PMS5003;40450;55.848;-3.572;2024-02-21T06:45:32;0;0;
54553;PMS5003;40450;55.848;-3.572;2024-02-21T06:47:57;4;1;
54553;PMS5003;40450;55.848;-3.572;2024-02-21T06:50:22;0;0;
54553;PMS5003;40450;55.848;-3.572;2024-02-21T06:52:47;0;0;
54553;PMS5003;40450;55.848;-3.572;2024-02-21T06:55:13;0;0;
54553;PMS5003;40450;55.848;-3.572;2024-02-21T06:57:38;0;0;
54553;PMS5003;40450;55.848;-3.572;2024-02-21T07:00:05;0;0;
54553;PMS5003;40450;55.848;-3.572;2024-02-21T07:02:28;0;0;
54553;PMS5003;40450;55.848;-3.572;2024-02-21T07:04:55;0;0;
54553;PMS5003;40450;55.848;-3.572;2024-02-21T07:07:19;0;0;
54553;PMS5003;40450;55.848;-3.572;2024-02-21T07:09:44;1;1;
54553;PMS5003;40450;55.848;-3.572;2024-02-21T07:12:10;0;0;
54553;PMS5003;40450;55.848;-3.572;2024-02-21T07:14:36;0;0;
54553;PMS5003;40450;55.848;-3.572;2024-02-21T07:16:59;0;0;
54553;PMS5003;40450;55.848;-3.572;2024-02-21T07:19:26;0;0;
54553;PMS5003;40450;55.848;-3.572;2024-02-21T07:21:50;0;0;
54553;PMS5003;40450;55.848;-3.572;2024-02-21T07:24:15;0;0;
54553;PMS5003;40450;55.848;-3.572;2024-02-21T07:26:41;1;0;
54553;PMS5003;40450;55.848;-3.572;2024-02-21T07:29:05;0;0;
54553;PMS5003;40450;55.848;-3.572;2024-02-21T07:31:31;0;0;
54553;PMS5003;40450;55.848;-3.572;2024-02-21T07:33:56;0;0;
54553;PMS5003;40450;55.848;-3.572;2024-02-21T07:36:28;0;0;
54553;PMS5003;40450;55.848;-3.572;2024-02-21T07:38:46;0;0;
54553;PMS5003;40450;55.848;-3.572;2024-02-21T07:41:11;0;0;
54553;PMS5003;40450;55.848;-3.572;2024-02-21T07:43:37;0;0;
54553;PMS5003;40450;55.848;-3.572;2024-02-21T07:46:02;0;0;
54553;PMS5003;40450;55.848;-3.572;2024-02-21T07:48:31;0;0;
54553;PMS5003;40450;55.848;-3.572;2024-02-21T07:50:52;0;0;
54553;PMS5003;40450;55.848;-3.572;2024-02-21T07:53:17;0;0;
54553;PMS5003;40450;55.848;-3.572;2024-02-21T07:55:46;0;0;
54553;PMS5003;40450;55.848;-3.572;2024-02-21T07:58:13;0;0;
54553;PMS5003;40450;55.848;-3.572;2024-02-21T08:00:33;0;0;
54553;PMS5003;40450;55.848;-3.572;2024-02-21T08:02:58;0;0;
54553;PMS5003;40450;55.848;-3.572;2024-02-21T08:05:23;0;0;
54553;PMS5003;40450;55.848;-3.572;2024-02-21T08:07:48;0;0;
54553;PMS5003;40450;55.848;-3.572;2024-02-21T08:10:14;0;0;
54553;PMS5003;40450;55.848;-3.572;2024-02-21T08:12:39;0;0;
54553;PMS5003;40450;55.848;-3.572;2024-02-21T08:15:04;0;0;
54553;PMS5003;40450;55.848;-3.572;2024-02-21T08:17:29;0;0;
54553;PMS5003;40450;55.848;-3.572;2024-02-21T08:19:54;0;0;
54553;PMS5003;40450;55.848;-3.572;2024-02-21T08:22:20;0;0;
54553;PMS5003;40450;55.848;-3.572;2024-02-21T08:24:45;0;0;
54553;PMS5003;40450;55.848;-3.572;2024-02-21T08:27:10;0;0;
54553;PMS5003;40450;55.848;-3.572;2024-02-21T08:29:35;0;0;
54553;PMS5003;40450;55.848;-3.572;2024-02-21T08:32:00;0;0;
54553;PMS5003;40450;55.848;-3.572;2024-02-21T08:34:31;0;0;
54553;PMS5003;40450;55.848;-3.572;2024-02-21T08:36:56;0;0;
54553;PMS5003;40450;55.848;-3.572;2024-02-21T08:39:16;0;0;
54553;PMS5003;40450;55.848;-3.572;2024-02-21T08:41:41;0;0;
54553;PMS5003;40450;55.848;-3.572;2024-02-21T08:44:07;0;0;
54553;PMS5003;40450;55.848;-3.572;2024-02-21T08:46:31;0;0;
54553;PMS5003;40450;55.848;-3.572;2024-02-21T08:48:57;0;0;
54553;PMS5003;40450;55.848;-3.572;2024-02-21T08:51:22;0;0;
54553;PMS5003;40450;55.848;-3.572;2024-02-21T08:53:47;0;0;
54553;PMS5003;40450;55.848;-3.572;2024-02-21T08:56:12;0;0;
54553;PMS5003;40450;55.848;-3.572;2024-02-21T08:58:38;0;0;
54553;PMS5003;40450;55.848;-3.572;2024-02-21T09:01:03;0;0;
54553;PMS5003;40450;55.848;-3.572;2024-02-21T09:03:27;0;0;
54553;PMS5003;40450;55.848;-3.572;2024-02-21T09:05:54;0;0;
54553;PMS5003;40450;55.848;-3.572;2024-02-21T09:08:19;0;0;
54553;PMS5003;40450;55.848;-3.572;2024-02-21T09:10:43;0;0;
54553;PMS5003;40450;55.848;-3.572;2024-02-21T09:13:10;0;0;
54553;PMS5003;40450;55.848;-3.572;2024-02-21T09:15:33;0;0;
54553;PMS5003;40450;55.848;-3.572;2024-02-21T09:17:59;0;0;
54553;PMS5003;40450;55.848;-3.572;2024-02-21T09:20:24;0;0;
54553;PMS5003;40450;55.848;-3.572;2024-02-21T09:22:49;0;0;
54553;PMS5003;40450;55.848;-3.572;2024-02-21T09:25:15;0;0;
54553;PMS5003;40450;55.848;-3.572;2024-02-21T09:27:39;0;0;
54553;PMS5003;40450;55.848;-3.572;2024-02-21T09:30:05;0;0;
54553;PMS5003;40450;55.848;-3.572;2024-02-21T09:32:30;0;0;
54553;PMS5003;40450;55.848;-3.572;2024-02-21T09:34:55;0;0;
54553;PMS5003;40450;55.848;-3.572;2024-02-21T09:37:20;0;0;
54553;PMS5003;40450;55.848;-3.572;2024-02-21T09:39:45;0;0;
54553;PMS5003;40450;55.848;-3.572;2024-02-21T09:42:11;0;0;
54553;PMS5003;40450;55.848;-3.572;2024-02-21T09:44:36;0;0;
54553;PMS5003;40450;55.848;-3.572;2024-02-21T09:47:02;0;0;
54553;PMS5003;40450;55.848;-3.572;2024-02-21T09:49:30;0;0;
54553;PMS5003;40450;55.848;-3.572;2024-02-21T09:51:52;0;0;
54553;PMS5003;40450;55.848;-3.572;2024-02-21T09:54:16;0;0;
54553;PMS5003;40450;55.848;-3.572;2024-02-21T09:56:41;0;0;
54553;PMS5003;40450;55.848;-3.572;2024-02-21T09:59:06;0;0;
54553;PMS5003;40450;55.848;-3.572;2024-02-21T10:01:33;0;0;
54553;PMS5003;40450;55.848;-3.572;2024-02-21T10:03:57;0;0;
54553;PMS5003;40450;55.848;-3.572;2024-02-21T10:06:22;0;0;
54553;PMS5003;40450;55.848;-3.572;2024-02-21T10:08:51;0;0;
54553;PMS5003;40450;55.848;-3.572;2024-02-21T10:13:37;0;0;
54553;PMS5003;40450;55.848;-3.572;2024-02-21T10:16:05;0;0;
54553;PMS5003;40450;55.848;-3.572;2024-02-21T10:18:28;0;0;
54553;PMS5003;40450;55.848;-3.572;2024-02-21T10:23:18;0;0;
54553;PMS5003;40450;55.848;-3.572;2024-02-21T10:25:43;0;0;
54553;PMS5003;40450;55.848;-3.572;2024-02-21T10:28:11;0;0;
54553;PMS5003;40450;55.848;-3.572;2024-02-21T10:30:33;0;0;
54553;PMS5003;40450;55.848;-3.572;2024-02-21T10:32:59;0;0;
54553;PMS5003;40450;55.848;-3.572;2024-02-21T10:35:25;0;0;
54553;PMS5003;40450;55.848;-3.572;2024-02-21T10:37:49;0;0;
54553;PMS5003;40450;55.848;-3.572;2024-02-21T10:40:14;0;0;
54553;PMS5003;40450;55.848;-3.572;2024-02-21T10:42:39;0;0;
54553;PMS5003;40450;55.848;-3.572;2024-02-21T10:45:05;0;0;
54553;PMS5003;40450;55.848;-3.572;2024-02-21T10:47:30;0;0;
54553;PMS5003;40450;55.848;-3.572;2024-02-21T10:49:57;0;0;
54553;PMS5003;40450;55.848;-3.572;2024-02-21T10:52:27;0;0;
54553;PMS5003;40450;55.848;-3.572;2024-02-21T10:54:47;0;0;
54553;PMS5003;40450;55.848;-3.572;2024-02-21T10:57:10;0;0;
54553;PMS5003;40450;55.848;-3.572;2024-02-21T10:59:36;0;0;
54553;PMS5003;40450;55.848;-3.572;2024-02-21T11:02:01;0;0;
54553;PMS5003;40450;55.848;-3.572;2024-02-21T11:04:26;0;0;
54553;PMS5003;40450;55.848;-3.572;2024-02-21T11:06:51;0;0;
54553;PMS5003;40450;55.848;-3.572;2024-02-21T11:09:16;0;0;
54553;PMS5003;40450;55.848;-3.572;2024-02-21T11:11:43;0;0;
54553;PMS5003;40450;55.848;-3.572;2024-02-21T11:14:07;0;0;
54553;PMS5003;40450;55.848;-3.572;2024-02-21T11:16:35;0;0;
54553;PMS5003;40450;55.848;-3.572;2024-02-21T11:26:18;0;0;
54553;PMS5003;40450;55.848;-3.572;2024-02-21T11:28:37;0;0;
54553;PMS5003;40450;55.848;-3.572;2024-02-21T11:31:08;0;0;
54553;PMS5003;40450;55.848;-3.572;2024-02-21T11:33:28;0;0;
54553;PMS5003;40450;55.848;-3.572;2024-02-21T11:35:53;0;0;
54553;PMS5003;40450;55.848;-3.572;2024-02-21T11:38:18;0;0;
54553;PMS5003;40450;55.848;-3.572;2024-02-21T11:40:44;0;0;
54553;PMS5003;40450;55.848;-3.572;2024-02-21T11:43:08;0;0;
54553;PMS5003;40450;55.848;-3.572;2024-02-21T11:45:34;0;0;
54553;PMS5003;40450;55.848;-3.572;2024-02-21T11:47:59;0;0;
54553;PMS5003;40450;55.848;-3.572;2024-02-21T11:50:25;0;0;
54553;PMS5003;40450;55.848;-3.572;2024-02-21T11:52:49;0;0;
54553;PMS5003;40450;55.848;-3.572;2024-02-21T11:55:15;0;0;
54553;PMS5003;40450;55.848;-3.572;2024-02-21T11:57:40;0;0;
54553;PMS5003;40450;55.848;-3.572;2024-02-21T12:00:12;0;0;
54553;PMS5003;40450;55.848;-3.572;2024-02-21T12:02:30;0;0;
54553;PMS5003;40450;55.848;-3.572;2024-02-21T12:04:55;0;0;
54553;PMS5003;40450;55.848;-3.572;2024-02-21T12:07:20;0;0;
54553;PMS5003;40450;55.848;-3.572;2024-02-21T12:09:45;0;0;
54553;PMS5003;40450;55.848;-3.572;2024-02-21T12:12:10;0;0;
54553;PMS5003;40450;55.848;-3.572;2024-02-21T12:17:01;0;0;
54553;PMS5003;40450;55.848;-3.572;2024-02-21T12:19:26;0;0;
54553;PMS5003;40450;55.848;-3.572;2024-02-21T12:21:53;0;0;
54553;PMS5003;40450;55.848;-3.572;2024-02-21T12:24:17;0;0;
54553;PMS5003;40450;55.848;-3.572;2024-02-21T12:26:41;0;0;
54553;PMS5003;40450;55.848;-3.572;2024-02-21T12:29:07;0;0;
54553;PMS5003;40450;55.848;-3.572;2024-02-21T12:31:49;0;0;
54553;PMS5003;40450;55.848;-3.572;2024-02-21T12:33:58;0;0;
54553;PMS5003;40450;55.848;-3.572;2024-02-21T12:36:22;0;0;
54553;PMS5003;40450;55.848;-3.572;2024-02-21T12:38:47;0;0;
54553;PMS5003;40450;55.848;-3.572;2024-02-21T12:41:14;0;0;
54553;PMS5003;40450;55.848;-3.572;2024-02-21T12:43:37;0;0;
54553;PMS5003;40450;55.848;-3.572;2024-02-21T12:46:02;0;0;
54553;PMS5003;40450;55.848;-3.572;2024-02-21T12:48:27;0;0;
54553;PMS5003;40450;55.848;-3.572;2024-02-21T12:50:53;0;0;
54553;PMS5003;40450;55.848;-3.572;2024-02-21T12:53:18;0;0;
54553;PMS5003;40450;55.848;-3.572;2024-02-21T12:55:43;0;0;
54553;PMS5003;40450;55.848;-3.572;2024-02-21T12:58:08;0;0;
54553;PMS5003;40450;55.848;-3.572;2024-02-21T13:00:33;0;0;
54553;PMS5003;40450;55.848;-3.572;2024-02-21T13:02:58;0;0;
54553;PMS5003;40450;55.848;-3.572;2024-02-21T13:05:24;0;0;
54553;PMS5003;40450;55.848;-3.572;2024-02-21T13:07:49;0;0;
54553;PMS5003;40450;55.848;-3.572;2024-02-21T13:10:19;0;0;
54553;PMS5003;40450;55.848;-3.572;2024-02-21T13:12:39;0;0;
54553;PMS5003;40450;55.848;-3.572;2024-02-21T13:15:05;0;0;
54553;PMS5003;40450;55.848;-3.572;2024-02-21T13:17:33;0;0;
54553;PMS5003;40450;55.848;-3.572;2024-02-21T13:19:55;0;0;
54553;PMS5003;40450;55.848;-3.572;2024-02-21T13:22:20;0;0;
54553;PMS5003;40450;55.848;-3.572;2024-02-21T13:24:45;0;0;
54553;PMS5003;40450;55.848;-3.572;2024-02-21T13:27:10;0;0;
54553;PMS5003;40450;55.848;-3.572;2024-02-21T13:29:35;0;0;
54553;PMS5003;40450;55.848;-3.572;2024-02-21T13:32:00;0;0;
54553;PMS5003;40450;55.848;-3.572;2024-02-21T13:34:26;0;0;
54553;PMS5003;40450;55.848;-3.572;2024-02-21T13:39:16;1;1;
54553;PMS5003;40450;55.848;-3.572;2024-02-21T13:41:41;1;0;
54553;PMS5003;40450;55.848;-3.572;2024-02-21T13:44:06;0;0;
54553;PMS5003;40450;55.848;-3.572;2024-02-21T13:46:31;0;0;
54553;PMS5003;40450;55.848;-3.572;2024-02-21T13:49:02;1;1;
54553;PMS5003;40450;55.848;-3.572;2024-02-21T13:51:22;0;0;
54553;PMS5003;40450;55.848;-3.572;2024-02-21T13:53:50;0;0;
54553;PMS5003;40450;55.848;-3.572;2024-02-21T13:56:12;0;0;
54553;PMS5003;40450;55.848;-3.572;2024-02-21T13:58:37;0;0;
54553;PMS5003;40450;55.848;-3.572;2024-02-21T14:01:03;0;0;
54553;PMS5003;40450;55.848;-3.572;2024-02-21T14:03:28;0;0;
54553;PMS5003;40450;55.848;-3.572;2024-02-21T14:05:53;0;0;
54553;PMS5003;40450;55.848;-3.572;2024-02-21T14:08:20;0;0;
54553;PMS5003;40450;55.848;-3.572;2024-02-21T14:10:43;1;0;
54553;PMS5003;40450;55.848;-3.572;2024-02-21T14:13:08;0;0;
54553;PMS5003;40450;55.848;-3.572;2024-02-21T14:15:34;0;0;
54553;PMS5003;40450;55.848;-3.572;2024-02-21T14:18:00;0;0;
54553;PMS5003;40450;55.848;-3.572;2024-02-21T14:20:24;0;0;
54553;PMS5003;40450;55.848;-3.572;2024-02-21T14:22:49;0;0;
54553;PMS5003;40450;55.848;-3.572;2024-02-21T14:25:15;0;0;
54553;PMS5003;40450;55.848;-3.572;2024-02-21T14:27:39;0;0;
54553;PMS5003;40450;55.848;-3.572;2024-02-21T14:30:05;0;0;
54553;PMS5003;40450;55.848;-3.572;2024-02-21T14:32:30;0;0;
54553;PMS5003;40450;55.848;-3.572;2024-02-21T14:34:55;0;0;
54553;PMS5003;40450;55.848;-3.572;2024-02-21T14:37:20;0;0;
54553;PMS5003;40450;55.848;-3.572;2024-02-21T14:39:45;0;0;
54553;PMS5003;40450;55.848;-3.572;2024-02-21T14:42:10;0;0;
54553;PMS5003;40450;55.848;-3.572;2024-02-21T14:44:35;2;1;
54553;PMS5003;40450;55.848;-3.572;2024-02-21T14:47:00;0;0;
54553;PMS5003;40450;55.848;-3.572;2024-02-21T14:49:26;0;0;
54553;PMS5003;40450;55.848;-3.572;2024-02-21T14:51:59;1;1;
54553;PMS5003;40450;55.848;-3.572;2024-02-21T14:54:21;2;1;
54553;PMS5003;40450;55.848;-3.572;2024-02-21T14:56:41;1;1;
54553;PMS5003;40450;55.848;-3.572;2024-02-21T14:59:07;0;0;
54553;PMS5003;40450;55.848;-3.572;2024-02-21T15:01:35;1;1;
54553;PMS5003;40450;55.848;-3.572;2024-02-21T15:03:57;1;1;
54553;PMS5003;40450;55.848;-3.572;2024-02-21T15:06:24;0;0;
54553;PMS5003;40450;55.848;-3.572;2024-02-21T15:11:12;0;0;
54553;PMS5003;40450;55.848;-3.572;2024-02-21T15:13:38;1;1;
54553;PMS5003;40450;55.848;-3.572;2024-02-21T15:16:03;1;0;
54553;PMS5003;40450;55.848;-3.572;2024-02-21T15:18:28;1;1;
54553;PMS5003;40450;55.848;-3.572;2024-02-21T15:20:54;1;1;
54553;PMS5003;40450;55.848;-3.572;2024-02-21T15:23:18;3;0;
54553;PMS5003;40450;55.848;-3.572;2024-02-21T15:25:44;1;1;
54553;PMS5003;40450;55.848;-3.572;2024-02-21T15:28:09;3;2;
54553;PMS5003;40450;55.848;-3.572;2024-02-21T15:30:36;2;2;
54553;PMS5003;40450;55.848;-3.572;2024-02-21T15:33:00;1;1;
54553;PMS5003;40450;55.848;-3.572;2024-02-21T15:35:25;3;1;
54553;PMS5003;40450;55.848;-3.572;2024-02-21T15:37:50;1;1;
54553;PMS5003;40450;55.848;-3.572;2024-02-21T15:40:15;2;2;
54553;PMS5003;40450;55.848;-3.572;2024-02-21T15:42:41;2;2;
54553;PMS5003;40450;55.848;-3.572;2024-02-21T15:45:06;1;1;
54553;PMS5003;40450;55.848;-3.572;2024-02-21T15:47:32;0;0;
54553;PMS5003;40450;55.848;-3.572;2024-02-21T15:49:57;4;1;
54553;PMS5003;40450;55.848;-3.572;2024-02-21T15:52:22;2;2;
54553;PMS5003;40450;55.848;-3.572;2024-02-21T15:54:47;0;0;
54553;PMS5003;40450;55.848;-3.572;2024-02-21T15:57:13;1;1;
54553;PMS5003;40450;55.848;-3.572;2024-02-21T15:59:38;1;1;
54553;PMS5003;40450;55.848;-3.572;2024-02-21T16:02:04;4;3;
54553;PMS5003;40450;55.848;-3.572;2024-02-21T16:04:34;0;0;
54553;PMS5003;40450;55.848;-3.572;2024-02-21T16:06:54;1;1;
54553;PMS5003;40450;55.848;-3.572;2024-02-21T16:09:19;2;1;
54553;PMS5003;40450;55.848;-3.572;2024-02-21T16:11:44;0;0;
54553;PMS5003;40450;55.848;-3.572;2024-02-21T16:14:10;1;1;
54553;PMS5003;40450;55.848;-3.572;2024-02-21T16:16:35;1;1;
54553;PMS5003;40450;55.848;-3.572;2024-02-21T16:19:05;5;2;
54553;PMS5003;40450;55.848;-3.572;2024-02-21T16:21:31;4;4;
54553;PMS5003;40450;55.848;-3.572;2024-02-21T16:23:51;2;2;
54553;PMS5003;40450;55.848;-3.572;2024-02-21T16:26:16;1;1;
54553;PMS5003;40450;55.848;-3.572;2024-02-21T16:28:42;1;0;
54553;PMS5003;40450;55.848;-3.572;2024-02-21T16:31:12;1;1;
54553;PMS5003;40450;55.848;-3.572;2024-02-21T16:33:32;1;1;
54553;PMS5003;40450;55.848;-3.572;2024-02-21T16:36:04;1;1;
54553;PMS5003;40450;55.848;-3.572;2024-02-21T16:38:23;1;1;
54553;PMS5003;40450;55.848;-3.572;2024-02-21T16:40:48;5;2;
54553;PMS5003;40450;55.848;-3.572;2024-02-21T16:43:14;1;1;
54553;PMS5003;40450;55.848;-3.572;2024-02-21T16:45:44;2;1;
54553;PMS5003;40450;55.848;-3.572;2024-02-21T16:48:04;3;2;